createdAt,value
2019-01-22T00:00:20.020Z,0
2019-01-22T00:01:30.396Z,0
2019-01-22T00:02:40.534Z,0
2019-01-22T00:03:51.106Z,0
2019-01-22T00:05:01.414Z,0
2019-01-22T00:06:11.631Z,0
2019-01-22T00:07:21.759Z,0
2019-01-22T00:08:31.360Z,0
2019-01-22T00:09:41.273Z,0
2019-01-22T00:10:50.754Z,0
2019-01-22T00:12:00.490Z,0
2019-01-22T00:13:09.973Z,0
2019-01-22T00:14:19.958Z,0
2019-01-22T00:15:29.941Z,0
2019-01-22T00:16:39.403Z,0
2019-01-22T00:17:48.385Z,0
2019-01-22T00:18:57.640Z,0
2019-01-22T00:20:07.685Z,0
2019-01-22T00:21:17.678Z,0
2019-01-22T00:22:27.163Z,0
2019-01-22T00:23:37.155Z,0
2019-01-22T00:24:46.883Z,0
2019-01-22T00:25:56.865Z,0
2019-01-22T00:27:06.577Z,0
2019-01-22T00:28:16.556Z,0
2019-01-22T00:29:26.528Z,0
2019-01-22T00:30:36.238Z,0
2019-01-22T00:31:45.490Z,0
2019-01-22T00:32:54.978Z,0
2019-01-22T00:34:04.702Z,0
2019-01-22T00:35:14.674Z,0
2019-01-22T00:36:24.451Z,0
2019-01-22T00:37:33.925Z,0
2019-01-22T00:38:43.160Z,0
2019-01-22T00:39:53.138Z,0
2019-01-22T00:41:02.378Z,0
2019-01-22T00:42:12.091Z,0
2019-01-22T00:43:21.811Z,0
2019-01-22T00:44:31.527Z,0
2019-01-22T00:45:41.521Z,0
2019-01-22T00:46:51.239Z,0
2019-01-22T00:48:00.977Z,0
2019-01-22T00:49:10.453Z,0
2019-01-22T00:50:20.178Z,0
2019-01-22T00:51:29.659Z,0
2019-01-22T00:52:39.133Z,0
2019-01-22T00:53:49.101Z,0
2019-01-22T00:54:59.138Z,0
2019-01-22T00:56:09.191Z,0
2019-01-22T00:57:19.620Z,0
2019-01-22T00:58:30.159Z,0
2019-01-22T00:59:40.528Z,0
2019-01-22T01:00:50.623Z,0
2019-01-22T01:02:00.529Z,0
2019-01-22T01:03:10.238Z,0
2019-01-22T01:04:19.721Z,0
2019-01-22T01:05:29.731Z,0
2019-01-22T01:06:39.195Z,0
2019-01-22T01:07:48.664Z,0
2019-01-22T01:08:58.387Z,0
2019-01-22T01:10:07.611Z,0
2019-01-22T01:11:17.341Z,0
2019-01-22T01:12:27.061Z,0
2019-01-22T01:13:36.782Z,0
2019-01-22T01:14:46.244Z,0
2019-01-22T01:15:56.214Z,0
2019-01-22T01:17:05.716Z,0
2019-01-22T01:18:15.188Z,0
2019-01-22T01:19:24.909Z,0
2019-01-22T01:20:34.634Z,0
2019-01-22T01:21:44.097Z,0
2019-01-22T01:22:53.838Z,0
2019-01-22T01:24:03.569Z,0
2019-01-22T01:25:13.039Z,0
2019-01-22T01:26:22.527Z,0
2019-01-22T01:27:31.999Z,0
2019-01-22T01:28:41.717Z,0
2019-01-22T01:29:51.440Z,0
2019-01-22T01:31:01.158Z,0
2019-01-22T01:32:10.876Z,0
2019-01-22T01:33:20.861Z,0
2019-01-22T01:34:30.323Z,0
2019-01-22T01:35:39.600Z,0
2019-01-22T01:36:49.062Z,0
2019-01-22T01:37:58.526Z,0
2019-01-22T01:39:08.271Z,0
2019-01-22T01:40:17.768Z,0
2019-01-22T01:41:27.751Z,0
2019-01-22T01:42:36.979Z,0
2019-01-22T01:43:46.713Z,0
2019-01-22T01:44:55.931Z,0
2019-01-22T01:46:05.428Z,0
2019-01-22T01:47:14.920Z,0
2019-01-22T01:48:24.410Z,0
2019-01-22T01:49:33.894Z,0
2019-01-22T01:50:42.896Z,0
2019-01-22T01:51:52.872Z,0
2019-01-22T01:53:02.091Z,0
2019-01-22T01:54:11.817Z,0
2019-01-22T01:55:21.797Z,0
2019-01-22T01:56:31.289Z,0
2019-01-22T01:57:41.248Z,0
2019-01-22T01:58:50.715Z,0
2019-01-22T02:00:00.591Z,0
2019-01-22T02:01:10.945Z,0
2019-01-22T02:02:21.226Z,0
2019-01-22T02:03:32.128Z,0
2019-01-22T02:04:42.581Z,0
2019-01-22T02:05:52.678Z,0
2019-01-22T02:07:02.982Z,0
2019-01-22T02:08:12.641Z,0
2019-01-22T02:09:22.453Z,0
2019-01-22T02:10:31.689Z,0
2019-01-22T02:11:40.937Z,0
2019-01-22T02:12:50.909Z,0
2019-01-22T02:14:00.867Z,0
2019-01-22T02:15:10.593Z,0
2019-01-22T02:16:20.350Z,0
2019-01-22T02:17:30.343Z,0
2019-01-22T02:18:39.814Z,0
2019-01-22T02:19:49.816Z,0
2019-01-22T02:20:59.539Z,0
2019-01-22T02:22:09.008Z,0
2019-01-22T02:23:19.006Z,0
2019-01-22T02:24:28.712Z,0
2019-01-22T02:25:38.432Z,0
2019-01-22T02:26:47.935Z,0
2019-01-22T02:27:57.167Z,0
2019-01-22T02:29:06.651Z,0
2019-01-22T02:30:16.626Z,0
2019-01-22T02:31:26.381Z,0
2019-01-22T02:32:36.360Z,0
2019-01-22T02:33:46.076Z,0
2019-01-22T02:34:55.533Z,0
2019-01-22T02:36:05.274Z,0
2019-01-22T02:37:15.254Z,0
2019-01-22T02:38:25.217Z,0
2019-01-22T02:39:34.949Z,0
2019-01-22T02:40:44.680Z,0
2019-01-22T02:41:54.639Z,0
2019-01-22T02:43:04.647Z,0
2019-01-22T02:44:14.378Z,0
2019-01-22T02:45:24.108Z,0
2019-01-22T02:46:33.898Z,0
2019-01-22T02:47:43.864Z,0
2019-01-22T02:48:53.329Z,0
2019-01-22T02:50:03.145Z,0
2019-01-22T02:51:13.293Z,0
2019-01-22T02:52:24.377Z,0
2019-01-22T02:53:41.130Z,0
2019-01-22T02:54:50.861Z,0
2019-01-22T02:56:00.835Z,0
2019-01-22T02:57:10.599Z,0
2019-01-22T02:58:20.318Z,0
2019-01-22T02:59:30.053Z,0
2019-01-22T03:00:39.541Z,0
2019-01-22T03:01:49.272Z,0
2019-01-22T03:02:59.005Z,0
2019-01-22T03:04:09.022Z,0
2019-01-22T03:05:18.502Z,0
2019-01-22T03:06:28.498Z,0
2019-01-22T03:07:38.499Z,0
2019-01-22T03:08:48.217Z,0
2019-01-22T03:09:57.705Z,0
2019-01-22T03:11:07.800Z,0
2019-01-22T03:12:17.034Z,0
2019-01-22T03:13:26.747Z,0
2019-01-22T03:14:36.478Z,0
2019-01-22T03:15:46.515Z,0
2019-01-22T03:16:55.761Z,0
2019-01-22T03:18:05.757Z,0
2019-01-22T03:19:15.735Z,0
2019-01-22T03:20:25.466Z,0
2019-01-22T03:21:35.468Z,0
2019-01-22T03:22:45.204Z,0
2019-01-22T03:23:54.697Z,0
2019-01-22T03:25:04.457Z,0
2019-01-22T03:26:14.180Z,0
2019-01-22T03:27:24.146Z,0
2019-01-22T03:28:33.900Z,0
2019-01-22T03:29:43.638Z,0
2019-01-22T03:30:53.631Z,0
2019-01-22T03:32:03.624Z,0
2019-01-22T03:33:13.925Z,0
2019-01-22T03:34:23.935Z,0
2019-01-22T03:35:34.529Z,0
2019-01-22T03:36:45.097Z,0
2019-01-22T03:37:55.543Z,0
2019-01-22T03:39:05.792Z,0
2019-01-22T03:40:15.735Z,0
2019-01-22T03:41:25.438Z,0
2019-01-22T03:42:35.371Z,0
2019-01-22T03:43:44.814Z,0
2019-01-22T03:44:54.771Z,0
2019-01-22T03:46:04.739Z,0
2019-01-22T03:47:14.697Z,0
2019-01-22T03:48:24.155Z,0
2019-01-22T03:49:33.880Z,0
2019-01-22T03:50:43.575Z,0
2019-01-22T03:51:53.311Z,0
2019-01-22T03:53:03.060Z,0
2019-01-22T03:54:13.008Z,0
2019-01-22T03:55:22.697Z,0
2019-01-22T03:56:32.400Z,0
2019-01-22T03:57:42.120Z,0
2019-01-22T03:58:51.570Z,0
2019-01-22T04:00:01.528Z,0
2019-01-22T04:01:10.995Z,0
2019-01-22T04:02:20.202Z,0
2019-01-22T04:03:30.157Z,0
2019-01-22T04:04:39.876Z,0
2019-01-22T04:05:49.415Z,0
2019-01-22T04:06:59.122Z,0
2019-01-22T04:08:08.839Z,0
2019-01-22T04:09:18.771Z,0
2019-01-22T04:10:28.739Z,0
2019-01-22T04:11:37.936Z,0
2019-01-22T04:12:47.632Z,0
2019-01-22T04:13:57.337Z,0
2019-01-22T04:15:07.112Z,0
2019-01-22T04:16:16.681Z,0
2019-01-22T04:17:27.601Z,0
2019-01-22T04:18:38.247Z,0
2019-01-22T04:19:48.814Z,0
2019-01-22T04:20:59.257Z,0
2019-01-22T04:22:09.480Z,0
2019-01-22T04:23:18.862Z,0
2019-01-22T04:24:28.315Z,0
2019-01-22T04:25:38.011Z,0
2019-01-22T04:26:47.764Z,0
2019-01-22T04:27:57.449Z,0
2019-01-22T04:29:07.143Z,0
2019-01-22T04:30:16.843Z,0
2019-01-22T04:31:26.547Z,0
2019-01-22T04:32:36.489Z,0
2019-01-22T04:33:46.200Z,0
2019-01-22T04:34:55.654Z,0
2019-01-22T04:36:05.358Z,0
2019-01-22T04:37:15.049Z,0
2019-01-22T04:38:24.514Z,0
2019-01-22T04:39:34.213Z,0
2019-01-22T04:40:43.918Z,0
2019-01-22T04:41:53.112Z,0
2019-01-22T04:43:02.826Z,0
2019-01-22T04:44:12.112Z,0
2019-01-22T04:45:22.066Z,0
2019-01-22T04:46:31.790Z,0
2019-01-22T04:47:41.744Z,0
2019-01-22T04:48:51.454Z,0
2019-01-22T04:50:01.447Z,0
2019-01-22T04:51:11.178Z,0
2019-01-22T04:52:20.896Z,0
2019-01-22T04:53:30.339Z,0
2019-01-22T04:54:40.297Z,0
2019-01-22T04:55:49.997Z,0
2019-01-22T04:56:59.965Z,0
2019-01-22T04:58:09.659Z,0
2019-01-22T04:59:20.810Z,0
2019-01-22T05:00:31.552Z,0
2019-01-22T05:01:42.051Z,0
2019-01-22T05:02:51.828Z,0
2019-01-22T05:04:02.098Z,0
2019-01-22T05:05:11.283Z,0
2019-01-22T05:06:21.024Z,0
2019-01-22T05:07:30.477Z,0
2019-01-22T05:08:40.185Z,0
2019-01-22T05:09:49.869Z,0
2019-01-22T05:10:59.822Z,0
2019-01-22T05:12:09.788Z,0
2019-01-22T05:13:19.500Z,0
2019-01-22T05:14:29.454Z,0
2019-01-22T05:15:39.142Z,0
2019-01-22T05:16:48.838Z,0
2019-01-22T05:17:58.526Z,0
2019-01-22T05:19:08.250Z,0
2019-01-22T05:20:17.961Z,0
2019-01-22T05:21:27.924Z,0
2019-01-22T05:22:37.641Z,0
2019-01-22T05:23:47.808Z,0
2019-01-22T05:24:57.004Z,0
2019-01-22T05:26:06.965Z,0
2019-01-22T05:27:16.933Z,0
2019-01-22T05:28:26.631Z,0
2019-01-22T05:29:36.588Z,0
2019-01-22T05:30:46.291Z,0
2019-01-22T05:31:55.997Z,0
2019-01-22T05:33:05.442Z,0
2019-01-22T05:34:15.407Z,0
2019-01-22T05:35:24.851Z,0
2019-01-22T05:36:34.546Z,0
2019-01-22T05:37:44.274Z,0
2019-01-22T05:38:54.220Z,0
2019-01-22T05:40:03.663Z,0
2019-01-22T05:41:13.199Z,0
2019-01-22T05:42:23.009Z,0
2019-01-22T05:43:33.817Z,0
2019-01-22T05:44:44.706Z,0
2019-01-22T05:45:55.174Z,0
2019-01-22T05:47:05.804Z,0
2019-01-22T05:48:20.581Z,0
2019-01-22T05:49:30.522Z,0
2019-01-22T05:50:40.238Z,0
2019-01-22T05:51:50.195Z,0
2019-01-22T05:52:59.884Z,0
2019-01-22T05:54:09.573Z,0
2019-01-22T05:55:19.003Z,0
2019-01-22T05:56:28.183Z,0
2019-01-22T05:57:37.858Z,0
2019-01-22T05:58:47.533Z,0
2019-01-22T05:59:57.511Z,0
2019-01-22T06:01:06.431Z,0
2019-01-22T06:02:15.869Z,0
2019-01-22T06:03:25.927Z,0
2019-01-22T06:04:35.350Z,0
2019-01-22T06:05:45.275Z,0
2019-01-22T06:06:55.197Z,0
2019-01-22T06:08:04.876Z,0
2019-01-22T06:09:14.297Z,0
2019-01-22T06:10:23.965Z,0
2019-01-22T06:11:33.638Z,0
2019-01-22T06:12:43.304Z,0
2019-01-22T06:13:53.230Z,0
2019-01-22T06:15:02.758Z,0
2019-01-22T06:16:12.437Z,0
2019-01-22T06:17:21.864Z,0
2019-01-22T06:18:31.544Z,0
2019-01-22T06:19:41.022Z,0
2019-01-22T06:20:50.447Z,0
2019-01-22T06:22:00.137Z,0
2019-01-22T06:23:10.091Z,0
2019-01-22T06:24:19.767Z,0
2019-01-22T06:25:29.459Z,0
2019-01-22T06:26:39.144Z,0
2019-01-22T06:27:48.815Z,0
2019-01-22T06:28:58.484Z,0
2019-01-22T06:30:08.156Z,0
2019-01-22T06:31:17.573Z,0
2019-01-22T06:32:27.491Z,0
2019-01-22T06:33:36.918Z,0
2019-01-22T06:34:46.850Z,0
2019-01-22T06:35:56.793Z,0
2019-01-22T06:37:06.470Z,0
2019-01-22T06:38:16.394Z,0
2019-01-22T06:39:26.063Z,0
2019-01-22T06:40:35.479Z,0
2019-01-22T06:41:45.401Z,0
2019-01-22T06:42:55.332Z,0
2019-01-22T06:44:05.010Z,0
2019-01-22T06:45:14.691Z,0
2019-01-22T06:46:25.479Z,0
2019-01-22T06:47:34.902Z,4
2019-01-22T06:48:44.323Z,0
2019-01-22T06:49:54.255Z,0
2019-01-22T06:51:03.669Z,4
2019-01-22T06:52:13.600Z,4
2019-01-22T06:53:23.312Z,4
2019-01-22T06:54:39.484Z,4
2019-01-22T06:55:49.530Z,4
2019-01-22T06:56:59.467Z,8
2019-01-22T06:58:09.140Z,8
2019-01-22T06:59:18.814Z,12
2019-01-22T07:00:28.519Z,12
2019-01-22T07:01:38.196Z,12
2019-01-22T07:02:47.866Z,16
2019-01-22T07:03:57.536Z,16
2019-01-22T07:05:07.356Z,24
2019-01-22T07:06:16.815Z,28
2019-01-22T07:07:26.238Z,32
2019-01-22T07:08:36.157Z,36
2019-01-22T07:09:45.830Z,44
2019-01-22T07:10:55.514Z,48
2019-01-22T07:12:05.188Z,56
2019-01-22T07:13:15.111Z,64
2019-01-22T07:14:24.793Z,76
2019-01-22T07:15:34.466Z,84
2019-01-22T07:16:44.387Z,96
2019-01-22T07:17:54.058Z,108
2019-01-22T07:19:03.781Z,120
2019-01-22T07:20:13.199Z,132
2019-01-22T07:21:22.626Z,152
2019-01-22T07:22:32.044Z,164
2019-01-22T07:23:41.458Z,184
2019-01-22T07:24:54.086Z,204
2019-01-22T07:26:03.500Z,224
2019-01-22T07:27:13.420Z,248
2019-01-22T07:28:23.347Z,268
2019-01-22T07:29:33.267Z,288
2019-01-22T07:30:43.192Z,316
2019-01-22T07:31:52.358Z,340
2019-01-22T07:33:01.526Z,368
2019-01-22T07:34:10.945Z,396
2019-01-22T07:35:20.619Z,420
2019-01-22T07:36:30.285Z,448
2019-01-22T07:37:39.961Z,476
2019-01-22T07:38:49.675Z,504
2019-01-22T07:39:59.339Z,532
2019-01-22T07:41:09.015Z,564
2019-01-22T07:42:18.683Z,588
2019-01-22T07:43:28.105Z,616
2019-01-22T07:44:37.776Z,644
2019-01-22T07:45:47.200Z,672
2019-01-22T07:46:57.111Z,704
2019-01-22T07:48:06.786Z,732
2019-01-22T07:49:16.204Z,764
2019-01-22T07:50:26.132Z,788
2019-01-22T07:51:35.799Z,816
2019-01-22T07:52:45.222Z,840
2019-01-22T07:53:54.897Z,864
2019-01-22T07:55:04.313Z,884
2019-01-22T07:56:14.238Z,900
2019-01-22T07:57:23.905Z,924
2019-01-22T07:58:33.827Z,952
2019-01-22T07:59:43.757Z,980
2019-01-22T08:00:53.189Z,1012
2019-01-22T08:02:02.859Z,1044
2019-01-22T08:03:12.275Z,1080
2019-01-22T08:04:21.941Z,1116
2019-01-22T08:05:31.606Z,1152
2019-01-22T08:06:41.278Z,1196
2019-01-22T08:07:51.199Z,1236
2019-01-22T08:09:01.162Z,1276
2019-01-22T08:10:10.583Z,1316
2019-01-22T08:11:20.255Z,1360
2019-01-22T08:12:29.926Z,1416
2019-01-22T08:13:39.851Z,1468
2019-01-22T08:14:49.515Z,1508
2019-01-22T08:15:59.187Z,1540
2019-01-22T08:17:08.905Z,1568
2019-01-22T08:18:18.327Z,1596
2019-01-22T08:19:28.260Z,1624
2019-01-22T08:20:38.177Z,1656
2019-01-22T08:21:47.608Z,1692
2019-01-22T08:22:57.307Z,1724
2019-01-22T08:24:06.978Z,1744
2019-01-22T08:25:16.648Z,1764
2019-01-22T08:26:26.312Z,1780
2019-01-22T08:27:38.314Z,1804
2019-01-22T08:28:47.742Z,1832
2019-01-22T08:29:57.412Z,1872
2019-01-22T08:31:06.831Z,1924
2019-01-22T08:32:16.507Z,1972
2019-01-22T08:33:26.180Z,2020
2019-01-22T08:34:35.603Z,2064
2019-01-22T08:35:45.281Z,2100
2019-01-22T08:36:55.198Z,2140
2019-01-22T08:38:04.615Z,2180
2019-01-22T08:39:14.037Z,2208
2019-01-22T08:40:23.980Z,2248
2019-01-22T08:41:33.935Z,2292
2019-01-22T08:42:43.861Z,2316
2019-01-22T08:43:53.278Z,2332
2019-01-22T08:45:02.709Z,2364
2019-01-22T08:46:12.381Z,2396
2019-01-22T08:47:22.296Z,2420
2019-01-22T08:48:31.712Z,2432
2019-01-22T08:49:41.132Z,2448
2019-01-22T08:50:50.811Z,2468
2019-01-22T08:52:00.543Z,2496
2019-01-22T08:53:10.466Z,2512
2019-01-22T08:54:19.888Z,2524
2019-01-22T08:55:29.555Z,2528
2019-01-22T08:56:39.223Z,2536
2019-01-22T08:57:49.145Z,2528
2019-01-22T08:58:58.571Z,2524
2019-01-22T09:00:08.512Z,2524
2019-01-22T09:01:18.194Z,2524
2019-01-22T09:02:27.395Z,2524
2019-01-22T09:03:37.315Z,2528
2019-01-22T09:04:47.245Z,2540
2019-01-22T09:05:57.181Z,2548
2019-01-22T09:07:07.101Z,2568
2019-01-22T09:08:17.143Z,2580
2019-01-22T09:09:26.561Z,2580
2019-01-22T09:10:36.487Z,2576
2019-01-22T09:11:45.902Z,2560
2019-01-22T09:12:55.572Z,2544
2019-01-22T09:14:05.245Z,2536
2019-01-22T09:15:14.910Z,2516
2019-01-22T09:16:24.576Z,2512
2019-01-22T09:17:34.245Z,2516
2019-01-22T09:18:45.241Z,2520
2019-01-22T09:19:54.913Z,2524
2019-01-22T09:21:04.331Z,2528
2019-01-22T09:22:14.252Z,2548
2019-01-22T09:23:24.850Z,2596
2019-01-22T09:24:34.272Z,2648
2019-01-22T09:25:44.194Z,2684
2019-01-22T09:26:53.860Z,2712
2019-01-22T09:28:03.535Z,2748
2019-01-22T09:29:13.458Z,2788
2019-01-22T09:30:23.437Z,2824
2019-01-22T09:31:32.612Z,2852
2019-01-22T09:32:42.030Z,2888
2019-01-22T09:33:52.147Z,2928
2019-01-22T09:35:01.826Z,2968
2019-01-22T09:36:11.516Z,3016
2019-01-22T09:37:21.182Z,3068
2019-01-22T09:38:30.855Z,3112
2019-01-22T09:39:40.528Z,3132
2019-01-22T09:40:49.947Z,3164
2019-01-22T09:41:59.623Z,3248
2019-01-22T09:43:09.066Z,3360
2019-01-22T09:44:18.734Z,3424
2019-01-22T09:45:28.407Z,3500
2019-01-22T09:46:38.075Z,3568
2019-01-22T09:47:47.494Z,3628
2019-01-22T09:48:56.925Z,3704
2019-01-22T09:50:06.861Z,3776
2019-01-22T09:51:16.786Z,3848
2019-01-22T09:52:26.709Z,3896
2019-01-22T09:53:36.630Z,3952
2019-01-22T09:54:46.048Z,3988
2019-01-22T09:56:02.901Z,4012
2019-01-22T09:57:12.568Z,4048
2019-01-22T09:58:21.986Z,4080
2019-01-22T09:59:31.698Z,4116
2019-01-22T10:00:41.373Z,4144
2019-01-22T10:01:51.041Z,4140
2019-01-22T10:03:00.710Z,4172
2019-01-22T10:04:10.760Z,4188
2019-01-22T10:05:20.681Z,4180
2019-01-22T10:06:30.950Z,4188
2019-01-22T10:07:40.625Z,4200
2019-01-22T10:08:50.064Z,4184
2019-01-22T10:10:00.027Z,4176
2019-01-22T10:11:09.951Z,4212
2019-01-22T10:12:19.621Z,4256
2019-01-22T10:13:29.295Z,4280
2019-01-22T10:14:38.465Z,4288
2019-01-22T10:15:48.139Z,4296
2019-01-22T10:16:58.063Z,4296
2019-01-22T10:18:07.743Z,4332
2019-01-22T10:19:17.677Z,4368
2019-01-22T10:20:26.858Z,4416
2019-01-22T10:21:36.536Z,4432
2019-01-22T10:22:46.222Z,4456
2019-01-22T10:23:55.146Z,4448
2019-01-22T10:25:04.818Z,4452
2019-01-22T10:26:14.490Z,4504
2019-01-22T10:27:23.912Z,4560
2019-01-22T10:28:32.838Z,4584
2019-01-22T10:29:42.773Z,4644
2019-01-22T10:30:52.699Z,4712
2019-01-22T10:32:02.366Z,4820
2019-01-22T10:33:12.048Z,4828
2019-01-22T10:34:21.983Z,4868
2019-01-22T10:35:31.400Z,4860
2019-01-22T10:36:41.077Z,4824
2019-01-22T10:37:50.996Z,4744
2019-01-22T10:39:00.417Z,4680
2019-01-22T10:40:12.718Z,4568
2019-01-22T10:41:22.136Z,4492
2019-01-22T10:42:31.564Z,4456
2019-01-22T10:43:41.242Z,4472
2019-01-22T10:44:51.173Z,4464
2019-01-22T10:46:01.094Z,4476
2019-01-22T10:47:10.275Z,4452
2019-01-22T10:48:19.955Z,4468
2019-01-22T10:49:29.623Z,4468
2019-01-22T10:50:43.028Z,4492
2019-01-22T10:51:52.699Z,4504
2019-01-22T10:53:02.119Z,4540
2019-01-22T10:54:11.546Z,4576
2019-01-22T10:55:20.966Z,4604
2019-01-22T10:56:30.894Z,4608
2019-01-22T10:57:40.558Z,4576
2019-01-22T10:58:50.240Z,4612
2019-01-22T10:59:59.909Z,4660
2019-01-22T11:01:09.838Z,4740
2019-01-22T11:02:19.524Z,4816
2019-01-22T11:03:28.954Z,4900
2019-01-22T11:04:38.621Z,5000
2019-01-22T11:05:48.076Z,5128
2019-01-22T11:06:57.995Z,5220
2019-01-22T11:08:07.669Z,5348
2019-01-22T11:09:17.335Z,5412
2019-01-22T11:10:27.007Z,5416
2019-01-22T11:11:36.438Z,5436
2019-01-22T11:12:46.354Z,5504
2019-01-22T11:13:56.272Z,5544
2019-01-22T11:15:05.711Z,5556
2019-01-22T11:16:15.245Z,5556
2019-01-22T11:17:24.954Z,5572
2019-01-22T11:18:34.384Z,5532
2019-01-22T11:19:44.320Z,5496
2019-01-22T11:20:53.747Z,5420
2019-01-22T11:22:03.180Z,5328
2019-01-22T11:23:13.098Z,5240
2019-01-22T11:24:23.025Z,5128
2019-01-22T11:25:43.421Z,5008
2019-01-22T11:26:53.723Z,4936
2019-01-22T11:28:03.149Z,4904
2019-01-22T11:29:13.073Z,4872
2019-01-22T11:30:22.989Z,4892
2019-01-22T11:31:32.661Z,4852
2019-01-22T11:32:42.329Z,4800
2019-01-22T11:33:51.999Z,4780
2019-01-22T11:35:01.922Z,4832
2019-01-22T11:36:11.604Z,4912
2019-01-22T11:37:21.277Z,4996
2019-01-22T11:38:30.698Z,5084
2019-01-22T11:39:39.633Z,5140
2019-01-22T11:40:49.060Z,5136
2019-01-22T11:41:58.984Z,5108
2019-01-22T11:43:08.906Z,5080
2019-01-22T11:44:18.832Z,5064
2019-01-22T11:45:28.755Z,5016
2019-01-22T11:46:38.180Z,4972
2019-01-22T11:47:47.618Z,4964
2019-01-22T11:48:57.292Z,4956
2019-01-22T11:50:07.093Z,4976
2019-01-22T11:51:16.775Z,4956
2019-01-22T11:52:26.208Z,4960
2019-01-22T11:53:35.638Z,4960
2019-01-22T11:54:44.323Z,4960
2019-01-22T11:55:57.901Z,5000
2019-01-22T11:57:07.344Z,5024
2019-01-22T11:58:16.777Z,5048
2019-01-22T11:59:26.209Z,5040
2019-01-22T12:00:35.906Z,5116
2019-01-22T12:01:45.344Z,5180
2019-01-22T12:02:55.032Z,5232
2019-01-22T12:04:04.508Z,5308
2019-01-22T12:05:13.748Z,5336
2019-01-22T12:06:23.216Z,5400
2019-01-22T12:07:32.647Z,5412
2019-01-22T12:08:42.082Z,5416
2019-01-22T12:09:51.255Z,5452
2019-01-22T12:11:00.948Z,5556
2019-01-22T12:12:10.888Z,5612
2019-01-22T12:13:19.826Z,5644
2019-01-22T12:14:29.253Z,5668
2019-01-22T12:15:38.946Z,5708
2019-01-22T12:16:48.129Z,5720
2019-01-22T12:17:57.566Z,5652
2019-01-22T12:19:07.487Z,5644
2019-01-22T12:20:16.908Z,5672
2019-01-22T12:21:26.841Z,5668
2019-01-22T12:22:36.538Z,5632
2019-01-22T12:23:46.220Z,5556
2019-01-22T12:24:55.903Z,5476
2019-01-22T12:26:05.326Z,5468
2019-01-22T12:27:14.748Z,5532
2019-01-22T12:28:24.167Z,5616
2019-01-22T12:29:33.838Z,5564
2019-01-22T12:30:43.517Z,5672
2019-01-22T12:31:53.445Z,5800
2019-01-22T12:33:03.114Z,5808
2019-01-22T12:34:12.290Z,5788
2019-01-22T12:35:21.217Z,5800
2019-01-22T12:36:30.894Z,5856
2019-01-22T12:37:40.572Z,5924
2019-01-22T12:38:50.496Z,5908
2019-01-22T12:40:00.181Z,5892
2019-01-22T12:41:09.866Z,5848
2019-01-22T12:42:19.543Z,5844
2019-01-22T12:43:28.720Z,5796
2019-01-22T12:44:38.402Z,5724
2019-01-22T12:45:47.869Z,5656
2019-01-22T12:46:57.549Z,5640
2019-01-22T12:48:07.223Z,5600
2019-01-22T12:49:16.650Z,5568
2019-01-22T12:50:32.655Z,5576
2019-01-22T12:51:42.591Z,5572
2019-01-22T12:52:52.275Z,5572
2019-01-22T12:54:01.957Z,5452
2019-01-22T12:55:11.642Z,5484
2019-01-22T12:56:21.064Z,5404
2019-01-22T12:57:30.490Z,5356
2019-01-22T12:58:39.909Z,5296
2019-01-22T12:59:49.585Z,5312
2019-01-22T13:00:58.790Z,5296
2019-01-22T13:02:08.486Z,5280
2019-01-22T13:03:17.912Z,5308
2019-01-22T13:04:26.838Z,5348
2019-01-22T13:05:36.765Z,5324
2019-01-22T13:06:46.694Z,5328
2019-01-22T13:07:56.383Z,5380
2019-01-22T13:09:06.308Z,5432
2019-01-22T13:10:16.258Z,5492
2019-01-22T13:11:25.690Z,5832
2019-01-22T13:12:35.364Z,7208
2019-01-22T13:13:44.795Z,8740
2019-01-22T13:14:54.471Z,8864
2019-01-22T13:16:04.151Z,10824
2019-01-22T13:17:13.592Z,11436
2019-01-22T13:18:23.485Z,9512
2019-01-22T13:19:33.232Z,8644
2019-01-22T13:20:42.926Z,7696
2019-01-22T13:21:52.354Z,7708
2019-01-22T13:23:02.037Z,7468
2019-01-22T13:24:11.712Z,6296
2019-01-22T13:25:21.636Z,5388
2019-01-22T13:26:31.564Z,5220
2019-01-22T13:27:40.738Z,5156
2019-01-22T13:28:50.166Z,5092
2019-01-22T13:30:05.779Z,5036
2019-01-22T13:31:15.456Z,5004
2019-01-22T13:32:25.382Z,5008
2019-01-22T13:33:35.300Z,5044
2019-01-22T13:34:44.720Z,5084
2019-01-22T13:35:54.644Z,5096
2019-01-22T13:37:04.588Z,5080
2019-01-22T13:38:14.514Z,5056
2019-01-22T13:39:24.446Z,5032
2019-01-22T13:40:34.367Z,5096
2019-01-22T13:41:44.043Z,5216
2019-01-22T13:42:53.972Z,5264
2019-01-22T13:44:03.647Z,5276
2019-01-22T13:45:13.094Z,5248
2019-01-22T13:46:23.019Z,5200
2019-01-22T13:47:32.691Z,5168
2019-01-22T13:48:43.333Z,5124
2019-01-22T13:49:52.765Z,5076
2019-01-22T13:51:02.693Z,5004
2019-01-22T13:52:12.120Z,4924
2019-01-22T13:53:21.551Z,4840
2019-01-22T13:54:30.994Z,4768
2019-01-22T13:55:40.422Z,4708
2019-01-22T13:56:50.096Z,4672
2019-01-22T13:57:59.811Z,4704
2019-01-22T13:59:09.745Z,4676
2019-01-22T14:00:19.419Z,4584
2019-01-22T14:01:28.850Z,4520
2019-01-22T14:02:38.278Z,4460
2019-01-22T14:03:47.957Z,4404
2019-01-22T14:04:57.680Z,4356
2019-01-22T14:06:07.619Z,4320
2019-01-22T14:07:17.296Z,4348
2019-01-22T14:08:27.226Z,4408
2019-01-22T14:09:36.896Z,4492
2019-01-22T14:10:46.336Z,4716
2019-01-22T14:11:55.526Z,4948
2019-01-22T14:13:04.705Z,4888
2019-01-22T14:14:14.397Z,4644
2019-01-22T14:15:24.324Z,4580
2019-01-22T14:16:33.760Z,4640
2019-01-22T14:17:43.193Z,4748
2019-01-22T14:18:52.886Z,4772
2019-01-22T14:20:02.809Z,4716
2019-01-22T14:21:12.736Z,4448
2019-01-22T14:22:26.081Z,4196
2019-01-22T14:23:35.753Z,4128
2019-01-22T14:24:44.932Z,4196
2019-01-22T14:25:54.358Z,4388
2019-01-22T14:27:04.039Z,4260
2019-01-22T14:28:13.518Z,4120
2019-01-22T14:29:23.029Z,4116
2019-01-22T14:30:32.518Z,4132
2019-01-22T14:31:41.945Z,4176
2019-01-22T14:32:51.614Z,4168
2019-01-22T14:34:01.542Z,4116
2019-01-22T14:35:11.430Z,4188
2019-01-22T14:36:20.612Z,4120
2019-01-22T14:37:30.038Z,4016
2019-01-22T14:38:39.960Z,4104
2019-01-22T14:39:49.892Z,4244
2019-01-22T14:40:59.812Z,4192
2019-01-22T14:42:09.251Z,4112
2019-01-22T14:43:19.179Z,3892
2019-01-22T14:44:28.610Z,3660
2019-01-22T14:45:38.291Z,3484
2019-01-22T14:46:47.725Z,3272
2019-01-22T14:47:57.153Z,3100
2019-01-22T14:49:06.827Z,2944
2019-01-22T14:50:16.498Z,2764
2019-01-22T14:51:25.930Z,2604
2019-01-22T14:52:35.355Z,2468
2019-01-22T14:53:45.040Z,2360
2019-01-22T14:54:54.968Z,2272
2019-01-22T14:56:05.217Z,2196
2019-01-22T14:57:21.237Z,2120
2019-01-22T14:58:31.423Z,2056
2019-01-22T14:59:40.843Z,1992
2019-01-22T15:00:50.779Z,1928
2019-01-22T15:02:00.456Z,1864
2019-01-22T15:03:09.897Z,1812
2019-01-22T15:04:19.825Z,1756
2019-01-22T15:05:29.248Z,1704
2019-01-22T15:06:38.929Z,1652
2019-01-22T15:07:48.387Z,1608
2019-01-22T15:08:58.365Z,1568
2019-01-22T15:10:07.545Z,1524
2019-01-22T15:11:16.715Z,1484
2019-01-22T15:12:26.137Z,1444
2019-01-22T15:13:36.073Z,1412
2019-01-22T15:14:45.745Z,1380
2019-01-22T15:15:55.421Z,1332
2019-01-22T15:17:04.847Z,1268
2019-01-22T15:18:14.274Z,1212
2019-01-22T15:19:23.697Z,1160
2019-01-22T15:20:33.612Z,1112
2019-01-22T15:21:43.537Z,1060
2019-01-22T15:22:53.233Z,1012
2019-01-22T15:24:03.162Z,960
2019-01-22T15:25:12.833Z,908
2019-01-22T15:26:22.256Z,856
2019-01-22T15:27:31.675Z,804
2019-01-22T15:28:41.096Z,752
2019-01-22T15:29:50.782Z,704
2019-01-22T15:31:00.470Z,656
2019-01-22T15:32:10.393Z,608
2019-01-22T15:33:20.808Z,568
2019-01-22T15:34:30.500Z,528
2019-01-22T15:35:40.179Z,492
2019-01-22T15:36:49.850Z,452
2019-01-22T15:37:59.300Z,420
2019-01-22T15:39:08.980Z,384
2019-01-22T15:40:18.692Z,356
2019-01-22T15:41:28.660Z,328
2019-01-22T15:42:38.339Z,300
2019-01-22T15:43:48.010Z,276
2019-01-22T15:44:57.435Z,256
2019-01-22T15:46:13.706Z,228
2019-01-22T15:47:23.125Z,212
2019-01-22T15:48:32.548Z,196
2019-01-22T15:49:41.729Z,180
2019-01-22T15:50:51.404Z,164
2019-01-22T15:52:00.826Z,148
2019-01-22T15:53:10.740Z,132
2019-01-22T15:54:19.914Z,120
2019-01-22T15:55:29.090Z,108
2019-01-22T15:56:46.219Z,96
2019-01-22T15:57:56.081Z,88
2019-01-22T15:59:05.757Z,76
2019-01-22T16:00:15.183Z,68
2019-01-22T16:01:25.034Z,56
2019-01-22T16:02:34.453Z,52
2019-01-22T16:03:43.626Z,44
2019-01-22T16:04:53.299Z,40
2019-01-22T16:06:02.985Z,32
2019-01-22T16:07:12.157Z,28
2019-01-22T16:08:21.827Z,24
2019-01-22T16:09:31.517Z,20
2019-01-22T16:10:40.693Z,20
2019-01-22T16:11:50.624Z,12
2019-01-22T16:13:00.550Z,12
2019-01-22T16:14:10.483Z,12
2019-01-22T16:15:19.659Z,8